sensor_id;sensor_type;location;lat;lon;timestamp;temperature;humidity
74153;DHT22;62505;46.070;14.492;2022-08-21T00:00:25;25.30;74.80
74153;DHT22;62505;46.070;14.492;2022-08-21T00:02:56;25.30;75.30
74153;DHT22;62505;46.070;14.492;2022-08-21T00:05:25;25.30;74.90
74153;DHT22;62505;46.070;14.492;2022-08-21T00:07:53;25.30;75.10
74153;DHT22;62505;46.070;14.492;2022-08-21T00:10:20;25.30;75.00
74153;DHT22;62505;46.070;14.492;2022-08-21T00:12:48;25.30;75.20
74153;DHT22;62505;46.070;14.492;2022-08-21T00:15:17;25.30;75.30
74153;DHT22;62505;46.070;14.492;2022-08-21T00:17:44;25.30;75.20
74153;DHT22;62505;46.070;14.492;2022-08-21T00:20:17;25.30;75.10
74153;DHT22;62505;46.070;14.492;2022-08-21T00:22:44;25.30;75.20
74153;DHT22;62505;46.070;14.492;2022-08-21T00:25:12;25.30;75.60
74153;DHT22;62505;46.070;14.492;2022-08-21T00:27:39;25.30;75.40
74153;DHT22;62505;46.070;14.492;2022-08-21T00:30:09;25.30;75.60
74153;DHT22;62505;46.070;14.492;2022-08-21T00:32:38;25.30;75.70
74153;DHT22;62505;46.070;14.492;2022-08-21T00:35:07;25.30;75.40
74153;DHT22;62505;46.070;14.492;2022-08-21T00:37:36;25.30;75.40
74153;DHT22;62505;46.070;14.492;2022-08-21T00:40:04;25.30;75.40
74153;DHT22;62505;46.070;14.492;2022-08-21T00:42:31;25.30;76.00
74153;DHT22;62505;46.070;14.492;2022-08-21T00:44:58;25.30;75.20
74153;DHT22;62505;46.070;14.492;2022-08-21T00:47:25;25.30;75.80
74153;DHT22;62505;46.070;14.492;2022-08-21T00:49:52;25.30;75.40
74153;DHT22;62505;46.070;14.492;2022-08-21T00:52:23;25.30;75.30
74153;DHT22;62505;46.070;14.492;2022-08-21T00:54:54;25.30;75.40
74153;DHT22;62505;46.070;14.492;2022-08-21T00:57:25;25.30;75.60
74153;DHT22;62505;46.070;14.492;2022-08-21T00:59:56;25.30;75.10
74153;DHT22;62505;46.070;14.492;2022-08-21T01:02:23;25.30;75.40
74153;DHT22;62505;46.070;14.492;2022-08-21T01:04:51;25.30;75.30
74153;DHT22;62505;46.070;14.492;2022-08-21T01:07:18;25.30;75.10
74153;DHT22;62505;46.070;14.492;2022-08-21T01:09:46;25.30;75.20
74153;DHT22;62505;46.070;14.492;2022-08-21T01:12:15;25.30;74.90
74153;DHT22;62505;46.070;14.492;2022-08-21T01:14:43;25.30;75.30
74153;DHT22;62505;46.070;14.492;2022-08-21T01:17:12;25.30;75.10
74153;DHT22;62505;46.070;14.492;2022-08-21T01:19:41;25.30;75.00
74153;DHT22;62505;46.070;14.492;2022-08-21T01:22:09;25.30;75.40
74153;DHT22;62505;46.070;14.492;2022-08-21T01:24:36;25.30;75.10
74153;DHT22;62505;46.070;14.492;2022-08-21T01:27:04;25.30;75.00
74153;DHT22;62505;46.070;14.492;2022-08-21T01:29:36;25.30;75.30
74153;DHT22;62505;46.070;14.492;2022-08-21T01:32:07;25.30;75.40
74153;DHT22;62505;46.070;14.492;2022-08-21T01:34:38;25.30;75.00
74153;DHT22;62505;46.070;14.492;2022-08-21T01:37:06;25.30;75.00
74153;DHT22;62505;46.070;14.492;2022-08-21T01:39:35;25.20;75.00
74153;DHT22;62505;46.070;14.492;2022-08-21T01:42:03;25.30;75.20
74153;DHT22;62505;46.070;14.492;2022-08-21T01:44:31;25.30;75.10
74153;DHT22;62505;46.070;14.492;2022-08-21T01:47:00;25.20;75.10
74153;DHT22;62505;46.070;14.492;2022-08-21T01:49:27;25.20;74.60
74153;DHT22;62505;46.070;14.492;2022-08-21T01:51:54;25.20;74.80
74153;DHT22;62505;46.070;14.492;2022-08-21T01:54:22;25.20;74.70
74153;DHT22;62505;46.070;14.492;2022-08-21T01:56:52;25.20;74.60
74153;DHT22;62505;46.070;14.492;2022-08-21T01:59:21;25.20;74.50
74153;DHT22;62505;46.070;14.492;2022-08-21T02:01:48;25.20;74.60
74153;DHT22;62505;46.070;14.492;2022-08-21T02:04:16;25.20;75.50
74153;DHT22;62505;46.070;14.492;2022-08-21T02:06:43;25.20;74.90
74153;DHT22;62505;46.070;14.492;2022-08-21T02:09:12;25.20;74.50
74153;DHT22;62505;46.070;14.492;2022-08-21T02:11:40;25.20;74.60
74153;DHT22;62505;46.070;14.492;2022-08-21T02:14:09;25.20;74.50
74153;DHT22;62505;46.070;14.492;2022-08-21T02:16:37;25.20;74.50
74153;DHT22;62505;46.070;14.492;2022-08-21T02:19:04;25.20;74.50
74153;DHT22;62505;46.070;14.492;2022-08-21T02:21:31;25.20;74.50
74153;DHT22;62505;46.070;14.492;2022-08-21T02:23:58;25.20;74.50
74153;DHT22;62505;46.070;14.492;2022-08-21T02:26:25;25.20;74.30
74153;DHT22;62505;46.070;14.492;2022-08-21T02:28:52;25.20;74.40
74153;DHT22;62505;46.070;14.492;2022-08-21T02:31:20;25.20;75.10
74153;DHT22;62505;46.070;14.492;2022-08-21T02:33:47;25.20;74.40
74153;DHT22;62505;46.070;14.492;2022-08-21T02:36:14;25.20;74.40
74153;DHT22;62505;46.070;14.492;2022-08-21T02:38:42;25.20;74.50
74153;DHT22;62505;46.070;14.492;2022-08-21T02:41:13;25.20;74.30
74153;DHT22;62505;46.070;14.492;2022-08-21T02:43:40;25.20;74.40
74153;DHT22;62505;46.070;14.492;2022-08-21T02:46:09;25.20;74.40
74153;DHT22;62505;46.070;14.492;2022-08-21T02:48:39;25.20;74.30
74153;DHT22;62505;46.070;14.492;2022-08-21T02:51:08;25.10;74.10
74153;DHT22;62505;46.070;14.492;2022-08-21T02:53:35;25.20;74.30
74153;DHT22;62505;46.070;14.492;2022-08-21T02:56:05;25.20;74.30
74153;DHT22;62505;46.070;14.492;2022-08-21T02:58:35;25.20;74.20
74153;DHT22;62505;46.070;14.492;2022-08-21T03:01:04;25.20;74.10
74153;DHT22;62505;46.070;14.492;2022-08-21T03:03:36;25.20;74.10
74153;DHT22;62505;46.070;14.492;2022-08-21T03:06:05;25.20;74.20
74153;DHT22;62505;46.070;14.492;2022-08-21T03:08:32;25.20;74.10
74153;DHT22;62505;46.070;14.492;2022-08-21T03:10:59;25.20;74.30
74153;DHT22;62505;46.070;14.492;2022-08-21T03:13:26;25.20;74.20
74153;DHT22;62505;46.070;14.492;2022-08-21T03:15:54;25.10;74.00
74153;DHT22;62505;46.070;14.492;2022-08-21T03:18:21;25.20;74.00
74153;DHT22;62505;46.070;14.492;2022-08-21T03:20:48;25.20;74.10
74153;DHT22;62505;46.070;14.492;2022-08-21T03:23:17;25.20;74.10
74153;DHT22;62505;46.070;14.492;2022-08-21T03:25:45;25.10;74.20
74153;DHT22;62505;46.070;14.492;2022-08-21T03:28:16;25.20;74.30
74153;DHT22;62505;46.070;14.492;2022-08-21T03:30:44;25.20;74.00
74153;DHT22;62505;46.070;14.492;2022-08-21T03:33:12;25.20;74.20
74153;DHT22;62505;46.070;14.492;2022-08-21T03:35:39;25.20;75.10
74153;DHT22;62505;46.070;14.492;2022-08-21T03:38:06;25.20;74.10
74153;DHT22;62505;46.070;14.492;2022-08-21T03:40:34;25.10;73.90
74153;DHT22;62505;46.070;14.492;2022-08-21T03:43:01;25.10;74.00
74153;DHT22;62505;46.070;14.492;2022-08-21T03:45:28;25.10;74.00
74153;DHT22;62505;46.070;14.492;2022-08-21T03:47:56;25.10;73.90
74153;DHT22;62505;46.070;14.492;2022-08-21T03:50:24;25.10;74.00
74153;DHT22;62505;46.070;14.492;2022-08-21T03:52:51;25.10;74.00
74153;DHT22;62505;46.070;14.492;2022-08-21T03:55:18;25.10;73.90
74153;DHT22;62505;46.070;14.492;2022-08-21T03:57:47;25.10;74.00
74153;DHT22;62505;46.070;14.492;2022-08-21T04:00:14;25.10;74.00
74153;DHT22;62505;46.070;14.492;2022-08-21T04:02:42;25.10;73.90
74153;DHT22;62505;46.070;14.492;2022-08-21T04:05:11;25.10;74.10
74153;DHT22;62505;46.070;14.492;2022-08-21T04:07:38;25.10;73.90
74153;DHT22;62505;46.070;14.492;2022-08-21T04:10:07;25.10;73.90
74153;DHT22;62505;46.070;14.492;2022-08-21T04:12:34;25.10;73.90
74153;DHT22;62505;46.070;14.492;2022-08-21T04:15:03;25.10;73.80
74153;DHT22;62505;46.070;14.492;2022-08-21T04:17:30;25.10;73.80
74153;DHT22;62505;46.070;14.492;2022-08-21T04:19:57;25.10;73.70
74153;DHT22;62505;46.070;14.492;2022-08-21T04:22:24;25.10;73.70
74153;DHT22;62505;46.070;14.492;2022-08-21T04:24:51;25.10;73.70
74153;DHT22;62505;46.070;14.492;2022-08-21T04:27:18;25.10;73.70
74153;DHT22;62505;46.070;14.492;2022-08-21T04:29:45;25.10;73.70
74153;DHT22;62505;46.070;14.492;2022-08-21T04:32:13;25.10;73.60
74153;DHT22;62505;46.070;14.492;2022-08-21T04:34:40;25.10;73.70
74153;DHT22;62505;46.070;14.492;2022-08-21T04:37:07;25.10;74.50
74153;DHT22;62505;46.070;14.492;2022-08-21T04:39:33;25.10;73.60
74153;DHT22;62505;46.070;14.492;2022-08-21T04:42:00;25.10;73.60
74153;DHT22;62505;46.070;14.492;2022-08-21T04:44:27;25.10;73.60
74153;DHT22;62505;46.070;14.492;2022-08-21T04:46:54;25.10;73.60
74153;DHT22;62505;46.070;14.492;2022-08-21T04:49:22;25.10;73.60
74153;DHT22;62505;46.070;14.492;2022-08-21T04:51:49;25.10;73.60
74153;DHT22;62505;46.070;14.492;2022-08-21T04:54:19;25.10;73.50
74153;DHT22;62505;46.070;14.492;2022-08-21T04:56:49;25.10;74.50
74153;DHT22;62505;46.070;14.492;2022-08-21T04:59:20;25.10;73.50
74153;DHT22;62505;46.070;14.492;2022-08-21T05:01:48;25.10;73.50
74153;DHT22;62505;46.070;14.492;2022-08-21T05:04:20;25.10;73.60
74153;DHT22;62505;46.070;14.492;2022-08-21T05:06:53;25.00;73.40
74153;DHT22;62505;46.070;14.492;2022-08-21T05:09:22;25.10;73.40
74153;DHT22;62505;46.070;14.492;2022-08-21T05:11:49;25.10;73.30
74153;DHT22;62505;46.070;14.492;2022-08-21T05:14:18;25.10;73.30
74153;DHT22;62505;46.070;14.492;2022-08-21T05:16:45;25.10;73.30
74153;DHT22;62505;46.070;14.492;2022-08-21T05:19:12;25.10;73.20
74153;DHT22;62505;46.070;14.492;2022-08-21T05:21:41;25.00;73.60
74153;DHT22;62505;46.070;14.492;2022-08-21T05:24:10;25.00;73.40
74153;DHT22;62505;46.070;14.492;2022-08-21T05:26:38;25.00;73.30
74153;DHT22;62505;46.070;14.492;2022-08-21T05:29:05;25.10;73.30
74153;DHT22;62505;46.070;14.492;2022-08-21T05:31:33;25.00;73.10
74153;DHT22;62505;46.070;14.492;2022-08-21T05:34:00;25.10;73.10
74153;DHT22;62505;46.070;14.492;2022-08-21T05:36:27;25.00;73.10
74153;DHT22;62505;46.070;14.492;2022-08-21T05:38:54;25.00;73.10
74153;DHT22;62505;46.070;14.492;2022-08-21T05:41:22;25.10;73.10
74153;DHT22;62505;46.070;14.492;2022-08-21T05:43:49;25.10;73.00
74153;DHT22;62505;46.070;14.492;2022-08-21T05:46:16;25.00;73.00
74153;DHT22;62505;46.070;14.492;2022-08-21T05:48:43;25.00;73.10
74153;DHT22;62505;46.070;14.492;2022-08-21T05:51:12;25.10;73.10
74153;DHT22;62505;46.070;14.492;2022-08-21T05:53:40;25.10;73.90
74153;DHT22;62505;46.070;14.492;2022-08-21T05:56:07;25.10;73.10
74153;DHT22;62505;46.070;14.492;2022-08-21T05:58:36;25.10;73.10
74153;DHT22;62505;46.070;14.492;2022-08-21T06:01:04;25.00;73.00
74153;DHT22;62505;46.070;14.492;2022-08-21T06:03:33;25.00;73.00
74153;DHT22;62505;46.070;14.492;2022-08-21T06:06:01;25.10;73.00
74153;DHT22;62505;46.070;14.492;2022-08-21T06:08:28;25.00;73.00
74153;DHT22;62505;46.070;14.492;2022-08-21T06:10:58;25.00;72.90
74153;DHT22;62505;46.070;14.492;2022-08-21T06:13:25;25.00;72.90
74153;DHT22;62505;46.070;14.492;2022-08-21T06:16:04;25.00;72.90
74153;DHT22;62505;46.070;14.492;2022-08-21T06:18:31;25.00;72.80
74153;DHT22;62505;46.070;14.492;2022-08-21T06:20:58;25.00;72.80
74153;DHT22;62505;46.070;14.492;2022-08-21T06:23:25;25.10;72.90
74153;DHT22;62505;46.070;14.492;2022-08-21T06:25:52;25.00;72.90
74153;DHT22;62505;46.070;14.492;2022-08-21T06:28:19;25.00;72.80
74153;DHT22;62505;46.070;14.492;2022-08-21T06:30:46;25.00;72.80
74153;DHT22;62505;46.070;14.492;2022-08-21T06:33:14;25.00;72.90
74153;DHT22;62505;46.070;14.492;2022-08-21T06:35:41;25.00;72.90
74153;DHT22;62505;46.070;14.492;2022-08-21T06:38:08;25.00;72.80
74153;DHT22;62505;46.070;14.492;2022-08-21T06:40:36;25.00;72.90
74153;DHT22;62505;46.070;14.492;2022-08-21T06:43:09;25.00;72.90
74153;DHT22;62505;46.070;14.492;2022-08-21T06:45:36;25.00;72.60
74153;DHT22;62505;46.070;14.492;2022-08-21T06:48:04;25.00;72.60
74153;DHT22;62505;46.070;14.492;2022-08-21T06:50:34;25.00;72.80
74153;DHT22;62505;46.070;14.492;2022-08-21T06:53:05;25.00;73.00
74153;DHT22;62505;46.070;14.492;2022-08-21T06:55:32;25.00;72.90
74153;DHT22;62505;46.070;14.492;2022-08-21T06:57:59;25.00;72.90
74153;DHT22;62505;46.070;14.492;2022-08-21T07:00:27;25.00;73.70
74153;DHT22;62505;46.070;14.492;2022-08-21T07:02:54;25.00;73.00
74153;DHT22;62505;46.070;14.492;2022-08-21T07:05:21;25.00;72.90
74153;DHT22;62505;46.070;14.492;2022-08-21T07:07:49;25.00;72.90
74153;DHT22;62505;46.070;14.492;2022-08-21T07:10:17;25.00;72.80
74153;DHT22;62505;46.070;14.492;2022-08-21T07:12:45;25.00;72.40
74153;DHT22;62505;46.070;14.492;2022-08-21T07:15:12;25.00;72.60
74153;DHT22;62505;46.070;14.492;2022-08-21T07:17:39;25.00;71.90
74153;DHT22;62505;46.070;14.492;2022-08-21T07:20:06;25.00;72.00
74153;DHT22;62505;46.070;14.492;2022-08-21T07:22:35;25.00;72.30
74153;DHT22;62505;46.070;14.492;2022-08-21T07:25:05;25.00;72.20
74153;DHT22;62505;46.070;14.492;2022-08-21T07:27:32;24.90;71.10
74153;DHT22;62505;46.070;14.492;2022-08-21T07:29:59;24.90;72.30
74153;DHT22;62505;46.070;14.492;2022-08-21T07:32:26;24.90;71.60
74153;DHT22;62505;46.070;14.492;2022-08-21T07:34:53;24.90;71.70
74153;DHT22;62505;46.070;14.492;2022-08-21T07:37:20;24.90;71.80
74153;DHT22;62505;46.070;14.492;2022-08-21T07:39:47;24.90;71.70
74153;DHT22;62505;46.070;14.492;2022-08-21T07:42:16;24.90;71.90
74153;DHT22;62505;46.070;14.492;2022-08-21T07:44:43;24.90;71.90
74153;DHT22;62505;46.070;14.492;2022-08-21T07:47:10;24.90;72.10
74153;DHT22;62505;46.070;14.492;2022-08-21T07:49:37;24.90;72.20
74153;DHT22;62505;46.070;14.492;2022-08-21T07:52:05;24.90;72.10
74153;DHT22;62505;46.070;14.492;2022-08-21T07:54:32;24.90;72.30
74153;DHT22;62505;46.070;14.492;2022-08-21T07:56:59;24.90;72.30
74153;DHT22;62505;46.070;14.492;2022-08-21T07:59:28;24.90;72.30
74153;DHT22;62505;46.070;14.492;2022-08-21T08:01:55;24.90;72.30
74153;DHT22;62505;46.070;14.492;2022-08-21T08:04:23;25.00;72.40
74153;DHT22;62505;46.070;14.492;2022-08-21T08:06:50;24.90;72.40
74153;DHT22;62505;46.070;14.492;2022-08-21T08:09:17;24.90;72.40
74153;DHT22;62505;46.070;14.492;2022-08-21T08:11:43;25.00;72.80
74153;DHT22;62505;46.070;14.492;2022-08-21T08:14:10;25.00;73.60
74153;DHT22;62505;46.070;14.492;2022-08-21T08:16:39;25.00;73.80
74153;DHT22;62505;46.070;14.492;2022-08-21T08:19:06;25.00;73.70
74153;DHT22;62505;46.070;14.492;2022-08-21T08:21:33;25.00;73.70
74153;DHT22;62505;46.070;14.492;2022-08-21T08:24:02;25.00;73.60
74153;DHT22;62505;46.070;14.492;2022-08-21T08:26:29;25.00;73.80
74153;DHT22;62505;46.070;14.492;2022-08-21T08:28:56;25.00;73.70
74153;DHT22;62505;46.070;14.492;2022-08-21T08:31:23;25.00;74.50
74153;DHT22;62505;46.070;14.492;2022-08-21T08:33:51;25.00;73.70
74153;DHT22;62505;46.070;14.492;2022-08-21T08:36:18;25.00;73.60
74153;DHT22;62505;46.070;14.492;2022-08-21T08:38:46;25.00;73.60
74153;DHT22;62505;46.070;14.492;2022-08-21T08:41:16;25.00;73.40
74153;DHT22;62505;46.070;14.492;2022-08-21T08:43:49;25.00;73.40
74153;DHT22;62505;46.070;14.492;2022-08-21T08:46:25;25.00;73.60
74153;DHT22;62505;46.070;14.492;2022-08-21T08:48:58;25.00;73.60
74153;DHT22;62505;46.070;14.492;2022-08-21T08:51:38;25.00;73.60
74153;DHT22;62505;46.070;14.492;2022-08-21T08:54:10;25.00;73.60
74153;DHT22;62505;46.070;14.492;2022-08-21T08:56:38;25.00;73.50
74153;DHT22;62505;46.070;14.492;2022-08-21T08:59:09;25.00;73.60
74153;DHT22;62505;46.070;14.492;2022-08-21T09:01:40;25.00;73.50
74153;DHT22;62505;46.070;14.492;2022-08-21T09:04:10;25.00;73.60
74153;DHT22;62505;46.070;14.492;2022-08-21T09:06:54;25.00;73.50
74153;DHT22;62505;46.070;14.492;2022-08-21T09:09:34;25.00;73.60
74153;DHT22;62505;46.070;14.492;2022-08-21T09:12:11;25.00;73.50
74153;DHT22;62505;46.070;14.492;2022-08-21T09:14:58;25.00;73.50
74153;DHT22;62505;46.070;14.492;2022-08-21T09:17:39;25.00;73.60
74153;DHT22;62505;46.070;14.492;2022-08-21T09:20:18;25.00;73.50
74153;DHT22;62505;46.070;14.492;2022-08-21T09:22:55;25.10;73.50
74153;DHT22;62505;46.070;14.492;2022-08-21T09:25:27;25.10;73.60
74153;DHT22;62505;46.070;14.492;2022-08-21T09:27:54;25.10;73.50
74153;DHT22;62505;46.070;14.492;2022-08-21T09:30:26;25.10;73.50
74153;DHT22;62505;46.070;14.492;2022-08-21T09:32:53;25.10;73.40
74153;DHT22;62505;46.070;14.492;2022-08-21T09:35:22;25.10;73.40
74153;DHT22;62505;46.070;14.492;2022-08-21T09:37:52;25.10;73.20
74153;DHT22;62505;46.070;14.492;2022-08-21T09:40:28;25.10;73.20
74153;DHT22;62505;46.070;14.492;2022-08-21T09:42:58;25.10;73.10
74153;DHT22;62505;46.070;14.492;2022-08-21T09:45:26;25.10;72.90
74153;DHT22;62505;46.070;14.492;2022-08-21T09:47:53;25.10;72.90
74153;DHT22;62505;46.070;14.492;2022-08-21T09:50:24;25.10;72.80
74153;DHT22;62505;46.070;14.492;2022-08-21T09:52:55;25.10;72.70
74153;DHT22;62505;46.070;14.492;2022-08-21T09:55:31;25.20;72.80
74153;DHT22;62505;46.070;14.492;2022-08-21T09:58:17;25.20;72.80
74153;DHT22;62505;46.070;14.492;2022-08-21T10:00:44;25.20;72.60
74153;DHT22;62505;46.070;14.492;2022-08-21T10:03:15;25.20;72.70
74153;DHT22;62505;46.070;14.492;2022-08-21T10:05:54;25.20;72.60
74153;DHT22;62505;46.070;14.492;2022-08-21T10:08:24;25.10;72.80
74153;DHT22;62505;46.070;14.492;2022-08-21T10:10:54;25.10;72.80
74153;DHT22;62505;46.070;14.492;2022-08-21T10:13:31;25.20;73.50
74153;DHT22;62505;46.070;14.492;2022-08-21T10:16:09;25.20;72.70
74153;DHT22;62505;46.070;14.492;2022-08-21T10:18:41;25.10;72.60
74153;DHT22;62505;46.070;14.492;2022-08-21T10:21:17;25.10;72.60
74153;DHT22;62505;46.070;14.492;2022-08-21T10:23:54;25.20;72.70
74153;DHT22;62505;46.070;14.492;2022-08-21T10:26:32;25.20;72.60
74153;DHT22;62505;46.070;14.492;2022-08-21T10:29:06;25.20;72.40
74153;DHT22;62505;46.070;14.492;2022-08-21T10:31:53;25.20;72.20
74153;DHT22;62505;46.070;14.492;2022-08-21T10:34:33;25.20;72.30
74153;DHT22;62505;46.070;14.492;2022-08-21T10:37:30;25.20;71.90
74153;DHT22;62505;46.070;14.492;2022-08-21T10:40:08;25.20;71.70
74153;DHT22;62505;46.070;14.492;2022-08-21T10:42:46;25.20;71.60
74153;DHT22;62505;46.070;14.492;2022-08-21T10:45:25;25.20;71.40
74153;DHT22;62505;46.070;14.492;2022-08-21T10:47:59;25.20;71.20
74153;DHT22;62505;46.070;14.492;2022-08-21T10:50:31;25.20;70.80
74153;DHT22;62505;46.070;14.492;2022-08-21T10:53:15;25.20;70.80
74153;DHT22;62505;46.070;14.492;2022-08-21T10:55:51;25.20;70.90
74153;DHT22;62505;46.070;14.492;2022-08-21T10:58:26;25.20;70.70
74153;DHT22;62505;46.070;14.492;2022-08-21T11:00:59;25.20;70.40
74153;DHT22;62505;46.070;14.492;2022-08-21T11:03:33;25.20;70.60
74153;DHT22;62505;46.070;14.492;2022-08-21T11:06:06;25.20;70.70
74153;DHT22;62505;46.070;14.492;2022-08-21T11:08:40;25.20;71.00
74153;DHT22;62505;46.070;14.492;2022-08-21T11:11:11;25.20;70.70
74153;DHT22;62505;46.070;14.492;2022-08-21T11:13:44;25.20;70.80
74153;DHT22;62505;46.070;14.492;2022-08-21T11:16:17;25.20;70.90
74153;DHT22;62505;46.070;14.492;2022-08-21T11:18:49;25.20;70.50
74153;DHT22;62505;46.070;14.492;2022-08-21T11:21:35;25.20;70.00
74153;DHT22;62505;46.070;14.492;2022-08-21T11:24:23;25.20;68.90
74153;DHT22;62505;46.070;14.492;2022-08-21T11:26:58;25.20;69.40
74153;DHT22;62505;46.070;14.492;2022-08-21T11:29:29;25.30;69.80
74153;DHT22;62505;46.070;14.492;2022-08-21T11:32:05;25.30;70.00
74153;DHT22;62505;46.070;14.492;2022-08-21T11:34:44;25.30;69.70
74153;DHT22;62505;46.070;14.492;2022-08-21T11:37:19;25.30;69.80
74153;DHT22;62505;46.070;14.492;2022-08-21T11:39:59;25.30;69.90
74153;DHT22;62505;46.070;14.492;2022-08-21T11:42:32;25.30;69.80
74153;DHT22;62505;46.070;14.492;2022-08-21T11:45:12;25.30;69.30
74153;DHT22;62505;46.070;14.492;2022-08-21T11:47:52;25.30;69.50
74153;DHT22;62505;46.070;14.492;2022-08-21T11:50:23;25.30;69.50
74153;DHT22;62505;46.070;14.492;2022-08-21T11:52:55;25.30;69.40
74153;DHT22;62505;46.070;14.492;2022-08-21T11:55:28;25.30;69.00
74153;DHT22;62505;46.070;14.492;2022-08-21T11:58:06;25.30;68.40
74153;DHT22;62505;46.070;14.492;2022-08-21T12:00:38;25.30;67.40
74153;DHT22;62505;46.070;14.492;2022-08-21T12:03:09;25.30;66.50
74153;DHT22;62505;46.070;14.492;2022-08-21T12:05:40;25.30;66.40
74153;DHT22;62505;46.070;14.492;2022-08-21T12:08:12;25.30;64.70
74153;DHT22;62505;46.070;14.492;2022-08-21T12:10:46;25.30;65.00
74153;DHT22;62505;46.070;14.492;2022-08-21T12:13:23;25.30;67.20
74153;DHT22;62505;46.070;14.492;2022-08-21T12:15:50;25.40;68.80
74153;DHT22;62505;46.070;14.492;2022-08-21T12:18:23;25.40;68.90
74153;DHT22;62505;46.070;14.492;2022-08-21T12:21:02;25.30;70.50
74153;DHT22;62505;46.070;14.492;2022-08-21T12:23:32;25.40;70.30
74153;DHT22;62505;46.070;14.492;2022-08-21T12:26:11;25.40;71.90
74153;DHT22;62505;46.070;14.492;2022-08-21T12:28:40;25.40;70.60
74153;DHT22;62505;46.070;14.492;2022-08-21T12:31:21;25.40;75.50
74153;DHT22;62505;46.070;14.492;2022-08-21T12:33:54;25.40;75.40
74153;DHT22;62505;46.070;14.492;2022-08-21T12:36:24;25.40;75.30
74153;DHT22;62505;46.070;14.492;2022-08-21T12:38:55;25.40;77.10
74153;DHT22;62505;46.070;14.492;2022-08-21T12:41:28;25.40;76.50
74153;DHT22;62505;46.070;14.492;2022-08-21T12:43:59;25.40;78.20
74153;DHT22;62505;46.070;14.492;2022-08-21T12:46:32;25.40;75.50
74153;DHT22;62505;46.070;14.492;2022-08-21T12:49:07;25.40;74.60
74153;DHT22;62505;46.070;14.492;2022-08-21T12:51:47;25.30;74.50
74153;DHT22;62505;46.070;14.492;2022-08-21T12:54:23;25.30;74.60
74153;DHT22;62505;46.070;14.492;2022-08-21T12:57:00;25.30;74.00
74153;DHT22;62505;46.070;14.492;2022-08-21T12:59:28;25.30;73.10
74153;DHT22;62505;46.070;14.492;2022-08-21T13:01:57;25.30;73.20
74153;DHT22;62505;46.070;14.492;2022-08-21T13:04:34;25.30;72.90
74153;DHT22;62505;46.070;14.492;2022-08-21T13:07:06;25.30;72.90
74153;DHT22;62505;46.070;14.492;2022-08-21T13:09:41;25.30;72.50
74153;DHT22;62505;46.070;14.492;2022-08-21T13:12:12;25.30;72.20
74153;DHT22;62505;46.070;14.492;2022-08-21T13:14:42;25.30;72.00
74153;DHT22;62505;46.070;14.492;2022-08-21T13:17:12;25.20;71.20
74153;DHT22;62505;46.070;14.492;2022-08-21T13:19:40;25.20;71.10
74153;DHT22;62505;46.070;14.492;2022-08-21T13:22:18;25.20;70.50
74153;DHT22;62505;46.070;14.492;2022-08-21T13:24:47;25.20;70.30
74153;DHT22;62505;46.070;14.492;2022-08-21T13:27:21;25.20;70.60
74153;DHT22;62505;46.070;14.492;2022-08-21T13:29:48;25.20;69.80
74153;DHT22;62505;46.070;14.492;2022-08-21T13:32:27;25.20;69.80
74153;DHT22;62505;46.070;14.492;2022-08-21T13:34:55;25.20;67.50
74153;DHT22;62505;46.070;14.492;2022-08-21T13:37:23;25.20;69.40
74153;DHT22;62505;46.070;14.492;2022-08-21T13:39:53;25.20;68.10
74153;DHT22;62505;46.070;14.492;2022-08-21T13:42:21;25.10;68.20
74153;DHT22;62505;46.070;14.492;2022-08-21T13:44:52;25.20;68.20
74153;DHT22;62505;46.070;14.492;2022-08-21T13:47:19;25.20;67.50
74153;DHT22;62505;46.070;14.492;2022-08-21T13:49:48;25.20;68.10
74153;DHT22;62505;46.070;14.492;2022-08-21T13:52:19;25.10;67.40
74153;DHT22;62505;46.070;14.492;2022-08-21T13:54:53;25.20;67.50
74153;DHT22;62505;46.070;14.492;2022-08-21T13:57:28;25.10;67.20
74153;DHT22;62505;46.070;14.492;2022-08-21T14:00:11;25.10;67.80
74153;DHT22;62505;46.070;14.492;2022-08-21T14:02:40;25.20;67.30
74153;DHT22;62505;46.070;14.492;2022-08-21T14:05:15;25.10;66.70
74153;DHT22;62505;46.070;14.492;2022-08-21T14:07:44;25.10;66.40
74153;DHT22;62505;46.070;14.492;2022-08-21T14:10:15;25.10;66.40
74153;DHT22;62505;46.070;14.492;2022-08-21T14:12:47;25.10;66.60
74153;DHT22;62505;46.070;14.492;2022-08-21T14:15:17;25.10;66.30
74153;DHT22;62505;46.070;14.492;2022-08-21T14:17:45;25.10;66.30
74153;DHT22;62505;46.070;14.492;2022-08-21T14:20:25;25.10;66.70
74153;DHT22;62505;46.070;14.492;2022-08-21T14:22:53;25.10;66.20
74153;DHT22;62505;46.070;14.492;2022-08-21T14:25:28;25.10;66.40
74153;DHT22;62505;46.070;14.492;2022-08-21T14:28:02;25.10;66.50
74153;DHT22;62505;46.070;14.492;2022-08-21T14:30:32;25.10;66.00
74153;DHT22;62505;46.070;14.492;2022-08-21T14:33:03;25.10;65.70
74153;DHT22;62505;46.070;14.492;2022-08-21T14:35:31;25.10;66.20
74153;DHT22;62505;46.070;14.492;2022-08-21T14:38:00;25.10;66.60
74153;DHT22;62505;46.070;14.492;2022-08-21T14:40:39;25.10;66.00
74153;DHT22;62505;46.070;14.492;2022-08-21T14:43:09;25.10;65.30
74153;DHT22;62505;46.070;14.492;2022-08-21T14:45:36;25.10;65.10
74153;DHT22;62505;46.070;14.492;2022-08-21T14:48:06;25.10;65.90
74153;DHT22;62505;46.070;14.492;2022-08-21T14:50:33;25.10;65.20
74153;DHT22;62505;46.070;14.492;2022-08-21T14:53:00;25.10;65.00
74153;DHT22;62505;46.070;14.492;2022-08-21T14:55:28;25.10;64.80
74153;DHT22;62505;46.070;14.492;2022-08-21T14:57:55;25.10;64.50
74153;DHT22;62505;46.070;14.492;2022-08-21T15:00:25;25.10;65.20
74153;DHT22;62505;46.070;14.492;2022-08-21T15:02:52;25.10;64.80
74153;DHT22;62505;46.070;14.492;2022-08-21T15:05:19;25.10;64.60
74153;DHT22;62505;46.070;14.492;2022-08-21T15:07:46;25.10;64.70
74153;DHT22;62505;46.070;14.492;2022-08-21T15:10:13;25.10;64.70
74153;DHT22;62505;46.070;14.492;2022-08-21T15:12:40;25.10;63.70
74153;DHT22;62505;46.070;14.492;2022-08-21T15:15:07;25.10;64.30
74153;DHT22;62505;46.070;14.492;2022-08-21T15:17:37;25.10;64.60
74153;DHT22;62505;46.070;14.492;2022-08-21T15:20:04;25.00;64.90
74153;DHT22;62505;46.070;14.492;2022-08-21T15:22:32;25.10;64.00
74153;DHT22;62505;46.070;14.492;2022-08-21T15:25:01;25.10;64.20
74153;DHT22;62505;46.070;14.492;2022-08-21T15:27:28;25.10;64.30
74153;DHT22;62505;46.070;14.492;2022-08-21T15:29:55;25.10;64.20
74153;DHT22;62505;46.070;14.492;2022-08-21T15:32:24;25.00;64.20